San Francisco, California
Traffic Map
Current Weather Conditions
San Francisco, California
Few Clouds
Few Clouds
17°
Feels Like: 17°
Wind Chill: 17° Ceiling: Unl
Heat Index: 17° Visibility: 10mi
Dew Point: 13° Wind: 9mph
Humidity: 78% Direction: 280° (W)
Pressure: 29.98in Gusts: 0mph
Raw Report DataKSFO 010856Z 28008KT 10SM FEW015 17/13 A2998 RMK AO2 SLP153 T01720133 58006
Traffic Incident Summary
Active as of:
Severity:
Category:
InformationThere was an issue retrieving the traffic information for this location. Please try a different location or try again shortly.
Advertisements
Track Severe Weather on mobile